createdAt,value
2023-01-21T08:59:37.562Z,0.18
2023-01-21T09:11:37.949Z,0.17
2023-01-21T09:23:38.455Z,0.06
2023-01-21T09:35:39.289Z,0.00
2023-01-21T09:47:39.359Z,0.11
2023-01-21T09:59:39.865Z,0.06
2023-01-21T10:11:40.267Z,0.04
2023-01-21T10:23:42.872Z,0.05
2023-01-21T10:35:41.147Z,0.00
2023-01-21T10:47:41.634Z,-0.10
2023-01-21T10:59:42.053Z,-0.03
2023-01-21T11:11:42.550Z,0.12
2023-01-21T11:23:42.994Z,0.04
2023-01-21T11:35:43.405Z,-0.03
2023-01-21T11:47:43.896Z,0.06
2023-01-21T11:59:44.324Z,-0.03
2023-01-21T12:11:44.756Z,0.03
2023-01-21T12:23:45.191Z,-0.03
2023-01-21T12:35:45.691Z,-0.08
2023-01-21T12:47:46.117Z,-0.18
2023-01-21T12:59:46.542Z,-0.17
2023-01-21T13:11:47.034Z,-0.09
2023-01-21T13:23:47.515Z,-0.03
2023-01-21T13:35:47.954Z,-0.13
2023-01-21T13:47:48.395Z,0.02
2023-01-21T13:59:48.841Z,0.07
2023-01-21T14:11:49.315Z,0.15
2023-01-21T14:23:49.748Z,-0.03
2023-01-21T14:35:50.167Z,-0.07
2023-01-21T14:47:50.661Z,0.03
2023-01-21T14:59:51.244Z,0.04
2023-01-21T15:11:51.595Z,-0.22
2023-01-21T15:23:51.982Z,-0.38
2023-01-21T15:35:52.503Z,-0.48
2023-01-21T15:47:52.914Z,-0.52
2023-01-21T15:59:53.337Z,-0.65
2023-01-21T16:11:53.819Z,-0.69
2023-01-21T16:23:54.347Z,-0.80
2023-01-21T16:35:54.732Z,-0.64
2023-01-21T16:47:55.165Z,-0.85
2023-01-21T16:59:55.620Z,-0.54
2023-01-21T17:11:56.037Z,-0.76
2023-01-21T17:23:56.529Z,-0.88
2023-01-21T17:35:56.956Z,-0.89
2023-01-21T17:48:10.229Z,-0.87
2023-01-21T17:59:57.876Z,-0.76
2023-01-21T18:11:58.393Z,-0.70
2023-01-21T18:23:58.805Z,-0.60
2023-01-21T18:35:59.236Z,-0.46
2023-01-21T18:47:59.732Z,-0.65
2023-01-21T19:00:00.132Z,-0.50
2023-01-21T19:12:00.598Z,-0.65
2023-01-21T19:24:01.004Z,-0.67
2023-01-21T19:36:01.471Z,-0.49
2023-01-21T19:48:01.898Z,-0.61
2023-01-21T20:00:02.440Z,-0.42
2023-01-21T20:12:04.314Z,-0.46
2023-01-21T20:24:03.270Z,-0.44
2023-01-21T20:36:03.747Z,-0.45
2023-01-21T20:48:04.182Z,-0.54
2023-01-21T21:00:04.648Z,-0.53
2023-01-21T21:12:05.063Z,-0.30
2023-01-21T21:24:05.569Z,-0.23
2023-01-21T21:36:05.978Z,-0.30
2023-01-21T21:48:06.453Z,-0.28
2023-01-21T22:00:06.854Z,-0.19
2023-01-21T22:12:07.395Z,-0.24
2023-01-21T22:24:07.806Z,-0.33
2023-01-21T22:36:08.247Z,-0.32
2023-01-21T22:48:08.673Z,-0.39
2023-01-21T22:54:08.658Z,-0.42
2023-01-21T23:00:08.645Z,-0.45
2023-01-21T23:06:08.659Z,-0.36
2023-01-21T23:13:05.811Z,-0.32
2023-01-21T23:19:05.861Z,-0.44
2023-01-21T23:25:05.874Z,-0.42
2023-01-21T23:31:05.994Z,-0.36
2023-01-21T23:37:05.897Z,-0.41
2023-01-21T23:43:05.915Z,-0.40
2023-01-21T23:49:05.900Z,-0.38
2023-01-21T23:55:05.931Z,-0.30
